Time;durP1;ratioP1;P1;durP2;ratioP2;P2;SDS_P1;SDS_P2;PMS_P1;PMS_P2;Temp;Humidity;BMP_temperature;BMP_pressure;BME280_temperature;BME280_humidity;BME280_pressure;Samples;Min_cycle;Max_cycle;Signal;HPM_P1;HPM_P2
2023/11/24 00:00:00;;;;;;;22.20;14.17;;;6.30;90.70;;;;;;5094506;28;20098;-70
2023/11/24 00:02:26;;;;;;;27.30;15.90;;;6.30;90.70;;;;;;5094540;28;20032;-70
2023/11/24 00:04:52;;;;;;;24.67;14.10;;;6.20;90.80;;;;;;5092952;28;20472;-70
2023/11/24 00:07:18;;;;;;;21.43;14.53;;;6.20;90.90;;;;;;5094389;28;20038;-69
2023/11/24 00:09:44;;;;;;;22.77;14.60;;;6.10;91.00;;;;;;5094295;28;20051;-70
2023/11/24 00:12:11;;;;;;;28.30;15.83;;;6.10;91.10;;;;;;5093863;28;20043;-69
2023/11/24 00:14:37;;;;;;;23.90;15.50;;;6.10;91.10;;;;;;5094062;28;20442;-70
2023/11/24 00:17:04;;;;;;;24.77;15.17;;;6.00;91.40;;;;;;5093784;28;20040;-69
2023/11/24 00:19:30;;;;;;;25.77;15.97;;;6.00;91.50;;;;;;5093820;28;20447;-69
2023/11/24 00:21:56;;;;;;;24.67;15.07;;;6.00;91.70;;;;;;5094158;28;20060;-69
2023/11/24 00:24:23;;;;;;;22.03;13.97;;;6.00;92.10;;;;;;5094001;28;20094;-70
2023/11/24 00:26:50;;;;;;;21.30;13.23;;;6.00;92.30;;;;;;5093870;28;20044;-70
2023/11/24 00:29:16;;;;;;;21.10;13.13;;;6.00;92.40;;;;;;5093897;28;20115;-69
2023/11/24 00:31:42;;;;;;;19.73;11.83;;;6.00;92.50;;;;;;5093508;28;20436;-70
2023/11/24 00:34:07;;;;;;;21.13;11.77;;;6.00;92.60;;;;;;5093386;28;20033;-70
2023/11/24 00:36:34;;;;;;;17.07;11.23;;;6.00;92.70;;;;;;5093658;28;20043;-69
2023/11/24 00:39:00;;;;;;;18.80;11.80;;;6.00;92.70;;;;;;5093647;28;20040;-69
2023/11/24 00:41:28;;;;;;;19.30;11.50;;;6.10;92.60;;;;;;5093502;28;20089;-69
2023/11/24 00:43:54;;;;;;;18.00;11.73;;;6.00;92.50;;;;;;5075504;28;20445;-69
2023/11/24 00:46:21;;;;;;;19.97;12.17;;;6.10;92.50;;;;;;5093560;28;20089;-70
2023/11/24 00:48:48;;;;;;;18.10;10.87;;;6.10;92.70;;;;;;5093668;28;20419;-69
2023/11/24 00:51:14;;;;;;;20.70;13.07;;;6.10;92.60;;;;;;5093644;28;20043;-69
2023/11/24 00:53:40;;;;;;;21.57;13.10;;;6.00;92.50;;;;;;5093282;28;20036;-70
2023/11/24 00:56:07;;;;;;;22.70;12.60;;;6.10;92.50;;;;;;5093575;28;20036;-69
2023/11/24 00:58:32;;;;;;;19.97;12.20;;;6.00;92.60;;;;;;5093435;28;20127;-69
2023/11/24 01:01:00;;;;;;;17.50;11.63;;;6.10;92.70;;;;;;5093499;28;20146;-69
2023/11/24 01:03:27;;;;;;;16.40;10.60;;;6.10;92.60;;;;;;5093298;28;20050;-69
2023/11/24 01:05:53;;;;;;;16.90;11.10;;;6.00;92.60;;;;;;5075138;28;20032;-70
2023/11/24 01:08:20;;;;;;;16.53;10.70;;;6.10;92.70;;;;;;5092689;28;20028;-69
2023/11/24 01:10:46;;;;;;;20.93;11.77;;;6.00;92.60;;;;;;5093212;28;20396;-69
2023/11/24 01:13:12;;;;;;;16.80;11.47;;;6.00;92.50;;;;;;5093661;28;20389;-69
2023/11/24 01:15:38;;;;;;;19.07;11.67;;;6.00;92.50;;;;;;5092886;28;20107;-70
2023/11/24 01:18:06;;;;;;;19.57;11.10;;;6.00;92.60;;;;;;5093054;28;20262;-70
2023/11/24 01:20:36;;;;;;;15.33;9.53;;;6.00;92.90;;;;;;5092838;28;20039;-69
2023/11/24 01:23:04;;;;;;;13.47;8.97;;;6.00;93.10;;;;;;5092624;28;20111;-69
2023/11/24 01:25:30;;;;;;;15.73;8.80;;;6.00;93.10;;;;;;5092712;28;20048;-69
2023/11/24 01:27:56;;;;;;;13.27;8.17;;;6.00;93.30;;;;;;5093056;28;20036;-70
2023/11/24 01:30:22;;;;;;;11.57;7.97;;;6.00;93.50;;;;;;5092798;28;20040;-70
2023/11/24 01:32:48;;;;;;;13.50;7.17;;;6.00;93.50;;;;;;5092592;28;20068;-70
2023/11/24 01:35:14;;;;;;;13.33;7.80;;;6.10;93.90;;;;;;5092816;28;20121;-69
2023/11/24 01:37:40;;;;;;;11.03;7.23;;;6.10;93.90;;;;;;5092817;28;20116;-69
2023/11/24 01:40:06;;;;;;;15.17;7.37;;;6.10;93.90;;;;;;5092892;28;20044;-69
2023/11/24 01:42:37;;;;;;;13.07;7.47;;;6.20;93.80;;;;;;5092346;28;20055;-69
2023/11/24 01:45:09;;;;;;;13.33;7.33;;;6.20;93.70;;;;;;5092584;28;20104;-71
2023/11/24 01:47:34;;;;;;;13.73;8.50;;;6.20;93.30;;;;;;5092869;28;20127;-70
2023/11/24 01:50:02;;;;;;;13.40;8.10;;;6.20;93.30;;;;;;5092568;28;20170;-69
2023/11/24 01:52:28;;;;;;;13.90;8.27;;;6.20;93.40;;;;;;5092786;28;20044;-69
2023/11/24 01:54:54;;;;;;;18.93;9.07;;;6.20;93.40;;;;;;5092451;28;20040;-70
2023/11/24 01:57:21;;;;;;;13.40;9.33;;;6.20;93.20;;;;;;5092424;28;20118;-69
2023/11/24 01:59:48;;;;;;;14.67;9.30;;;6.10;93.10;;;;;;5089300;28;20504;-70
2023/11/24 02:02:20;;;;;;;15.90;9.73;;;6.10;93.20;;;;;;5071652;28;20032;-70
2023/11/24 02:04:46;;;;;;;14.25;9.10;;;6.10;93.30;;;;;;5091007;28;20032;-69
2023/11/24 02:07:12;;;;;;;16.00;9.90;;;6.00;93.30;;;;;;5092288;28;20480;-69
2023/11/24 02:09:39;;;;;;;15.17;10.30;;;5.90;93.40;;;;;;5092540;28;20043;-69
2023/11/24 02:12:07;;;;;;;15.07;9.70;;;5.90;93.50;;;;;;5092671;28;20063;-69
2023/11/24 02:14:32;;;;;;;15.63;9.53;;;5.90;93.50;;;;;;5071036;28;20186;-69
2023/11/24 02:16:59;;;;;;;15.37;9.93;;;5.90;93.50;;;;;;5089230;28;20483;-69
2023/11/24 02:19:26;;;;;;;16.40;10.60;;;5.90;93.60;;;;;;5092116;28;20040;-69
2023/11/24 02:21:53;;;;;;;14.43;9.07;;;5.90;94.20;;;;;;5092216;28;20442;-69
2023/11/24 02:24:19;;;;;;;12.87;8.17;;;5.90;94.00;;;;;;5092286;28;20476;-69
2023/11/24 02:26:45;;;;;;;13.97;8.73;;;6.00;94.10;;;;;;5092325;28;20115;-69
2023/11/24 02:29:11;;;;;;;13.00;8.30;;;5.90;94.10;;;;;;5095769;28;20111;-69
2023/11/24 02:31:37;;;;;;;13.83;8.70;;;6.00;94.30;;;;;;5077667;28;20111;-69
2023/11/24 02:34:03;;;;;;;12.70;9.10;;;5.90;94.20;;;;;;5095947;28;20415;-69
2023/11/24 02:36:30;;;;;;;16.13;9.53;;;5.90;94.20;;;;;;5095754;28;20024;-69
2023/11/24 02:38:57;;;;;;;16.80;9.47;;;5.90;94.10;;;;;;5096033;28;20036;-69
2023/11/24 02:41:23;;;;;;;14.60;9.63;;;5.90;94.00;;;;;;5095834;28;20029;-78
2023/11/24 02:43:49;;;;;;;15.77;9.37;;;5.90;94.00;;;;;;5095243;28;20059;-78
2023/11/24 02:46:15;;;;;;;14.67;9.40;;;5.90;94.10;;;;;;5095528;28;20445;-77
2023/11/24 02:48:42;;;;;;;17.07;9.90;;;5.90;94.10;;;;;;5095597;28;20811;-78
2023/11/24 02:51:09;;;;;;;15.93;9.37;;;5.80;94.10;;;;;;5095494;28;20029;-75
2023/11/24 02:53:36;;;;;;;14.47;9.17;;;5.80;94.10;;;;;;5095454;28;20088;-78
2023/11/24 02:56:03;;;;;;;16.93;9.90;;;5.80;94.10;;;;;;5095429;28;20028;-78
2023/11/24 02:58:29;;;;;;;14.73;9.50;;;5.80;94.20;;;;;;5095504;28;20052;-77
2023/11/24 03:00:56;;;;;;;14.50;9.97;;;5.80;94.40;;;;;;5095502;28;20040;-78
2023/11/24 03:03:23;;;;;;;12.97;8.97;;;5.80;94.40;;;;;;5095589;28;20028;-76
2023/11/24 03:05:50;;;;;;;15.87;9.73;;;5.80;94.40;;;;;;5095351;28;20032;-78
2023/11/24 03:08:17;;;;;;;16.87;10.73;;;5.80;94.30;;;;;;5095509;28;20032;-77
2023/11/24 03:10:43;;;;;;;15.70;10.37;;;5.80;94.50;;;;;;5076963;28;20506;-77
2023/11/24 03:13:10;;;;;;;16.67;10.23;;;5.80;94.60;;;;;;5095134;28;20111;-78
2023/11/24 03:15:35;;;;;;;14.87;10.27;;;5.80;94.70;;;;;;5095155;28;20487;-78
2023/11/24 03:18:02;;;;;;;15.70;10.43;;;5.80;94.30;;;;;;5094994;28;20038;-77
2023/11/24 03:20:27;;;;;;;16.27;10.00;;;5.80;94.20;;;;;;5076879;28;20496;-77
2023/11/24 03:22:54;;;;;;;17.33;10.67;;;5.70;94.20;;;;;;5093599;28;20024;-78
2023/11/24 03:25:20;;;;;;;18.63;10.70;;;5.70;94.20;;;;;;5094909;28;20041;-78
2023/11/24 03:27:46;;;;;;;20.30;11.47;;;5.70;94.40;;;;;;5094906;28;20392;-74
2023/11/24 03:30:12;;;;;;;17.40;11.07;;;5.70;94.40;;;;;;5094812;28;20024;-78
2023/11/24 03:32:38;;;;;;;17.53;10.80;;;5.60;94.40;;;;;;5094652;28;20032;-77
2023/11/24 03:35:05;;;;;;;21.63;12.40;;;5.60;94.40;;;;;;5094579;28;20116;-76
2023/11/24 03:37:31;;;;;;;17.67;11.17;;;5.60;94.50;;;;;;5094718;28;20036;-78
2023/11/24 03:39:57;;;;;;;19.73;11.30;;;5.50;94.40;;;;;;5094447;28;20042;-78
2023/11/24 03:42:22;;;;;;;18.10;11.10;;;5.50;94.40;;;;;;5094633;28;20383;-76
2023/11/24 03:44:48;;;;;;;17.60;10.63;;;5.50;94.50;;;;;;5094385;28;20046;-77
2023/11/24 03:47:14;;;;;;;18.13;10.63;;;5.50;94.60;;;;;;5094644;28;20039;-78
2023/11/24 03:49:39;;;;;;;16.93;10.87;;;5.40;94.80;;;;;;5094369;28;20090;-77
2023/11/24 03:52:05;;;;;;;17.03;10.03;;;5.40;94.90;;;;;;5094501;28;20025;-78
2023/11/24 03:54:31;;;;;;;16.20;10.67;;;5.40;94.90;;;;;;5094313;28;20137;-77
2023/11/24 03:56:57;;;;;;;17.77;10.10;;;5.30;95.00;;;;;;5075789;28;20035;-78
2023/11/24 03:59:22;;;;;;;16.37;9.50;;;5.30;95.40;;;;;;5093897;28;20036;-76
2023/11/24 04:01:48;;;;;;;14.97;9.67;;;5.30;95.20;;;;;;5094234;28;20028;-77
2023/11/24 04:04:14;;;;;;;17.53;9.40;;;5.30;95.20;;;;;;5094317;28;20027;-77
2023/11/24 04:06:39;;;;;;;16.27;9.93;;;5.30;95.30;;;;;;5089415;28;20113;-78
2023/11/24 04:09:05;;;;;;;16.90;10.13;;;5.30;95.30;;;;;;5073875;28;20033;-78
2023/11/24 04:11:31;;;;;;;15.87;10.37;;;5.20;95.30;;;;;;5073733;28;20095;-69
2023/11/24 04:13:57;;;;;;;14.20;9.53;;;5.30;95.40;;;;;;5073834;28;20043;-69
2023/11/24 04:16:23;;;;;;;17.50;10.13;;;5.30;95.40;;;;;;5073879;28;20040;-72
2023/11/24 04:18:49;;;;;;;20.83;9.07;;;5.30;95.70;;;;;;5055584;28;20049;-78
2023/11/24 04:21:16;;;;;;;13.27;10.47;;;5.30;95.80;;;;;;5073647;28;20059;-75
2023/11/24 04:23:42;;;;;;;9.47;6.87;;;5.30;96.00;;;;;;5073221;28;20042;-75
2023/11/24 04:26:08;;;;;;;9.17;7.30;;;5.30;96.10;;;;;;5073292;28;20071;-69
2023/11/24 04:28:33;;;;;;;9.73;5.67;;;5.30;96.20;;;;;;5073579;28;20024;-69
2023/11/24 04:30:59;;;;;;;9.60;5.90;;;5.30;96.30;;;;;;5073216;28;20028;-69
2023/11/24 04:33:25;;;;;;;9.77;5.53;;;5.30;96.70;;;;;;5073354;28;20036;-69
2023/11/24 04:35:55;;;;;;;7.23;4.97;;;5.30;96.40;;;;;;5093220;28;20119;-69
2023/11/24 04:38:21;;;;;;;8.63;5.13;;;5.30;96.30;;;;;;5107576;28;20023;-69
2023/11/24 04:40:46;;;;;;;12.87;6.17;;;5.30;96.30;;;;;;5100785;28;20538;-70
2023/11/24 04:43:12;;;;;;;8.47;5.63;;;5.30;96.30;;;;;;5104143;28;20039;-70
2023/11/24 04:45:39;;;;;;;8.57;5.30;;;5.30;96.30;;;;;;5093080;28;20131;-69
2023/11/24 04:48:09;;;;;;;12.23;6.80;;;5.40;96.40;;;;;;5093352;28;20411;-69
2023/11/24 04:50:35;;;;;;;8.23;5.27;;;5.40;96.40;;;;;;5092562;28;20039;-69
2023/11/24 04:53:02;;;;;;;11.10;6.67;;;5.40;96.00;;;;;;5093396;28;20475;-69
2023/11/24 04:55:28;;;;;;;12.23;6.50;;;5.40;96.00;;;;;;5093347;28;20495;-69
2023/11/24 04:57:54;;;;;;;19.10;7.77;;;5.40;96.00;;;;;;5092973;28;20036;-69
2023/11/24 05:00:20;;;;;;;20.13;9.00;;;5.30;95.70;;;;;;5093252;28;20040;-69
2023/11/24 05:02:46;;;;;;;17.27;8.40;;;5.30;95.50;;;;;;5093301;28;20028;-69
2023/11/24 05:05:12;;;;;;;14.57;7.83;;;5.20;95.20;;;;;;5093261;28;20067;-69
2023/11/24 05:07:38;;;;;;;16.37;8.40;;;5.10;95.20;;;;;;5093046;28;20059;-70
2023/11/24 05:10:05;;;;;;;14.03;8.23;;;5.10;95.20;;;;;;5092681;28;20038;-69
2023/11/24 05:12:31;;;;;;;12.30;7.77;;;5.10;95.30;;;;;;5093191;28;20032;-69
2023/11/24 05:14:57;;;;;;;14.37;8.20;;;5.00;95.30;;;;;;5092948;28;20035;-69
2023/11/24 05:17:23;;;;;;;17.77;8.80;;;5.00;95.40;;;;;;5092907;28;20388;-70
2023/11/24 05:19:49;;;;;;;13.97;8.63;;;5.00;95.60;;;;;;5074418;28;20079;-69
2023/11/24 05:22:14;;;;;;;12.93;8.03;;;4.90;95.70;;;;;;5092741;28;20115;-69
2023/11/24 05:24:40;;;;;;;11.10;8.27;;;4.90;95.80;;;;;;5092909;28;20048;-70
2023/11/24 05:27:07;;;;;;;13.67;7.60;;;4.90;95.90;;;;;;5092686;28;20032;-69
2023/11/24 05:29:33;;;;;;;13.70;8.47;;;4.80;96.00;;;;;;5092742;28;20040;-69
2023/11/24 05:31:58;;;;;;;12.27;8.23;;;4.90;96.10;;;;;;5092175;28;20115;-69
2023/11/24 05:34:25;;;;;;;13.23;8.00;;;4.80;96.30;;;;;;5092504;28;20068;-68
2023/11/24 05:36:51;;;;;;;12.40;6.90;;;4.90;96.50;;;;;;5075072;28;20760;-69
2023/11/24 05:39:17;;;;;;;12.60;7.10;;;4.90;96.70;;;;;;5101034;28;20051;-69
2023/11/24 05:41:44;;;;;;;10.27;6.83;;;4.90;96.80;;;;;;5089899;28;20117;-69
2023/11/24 05:44:11;;;;;;;11.07;6.50;;;4.90;97.00;;;;;;5090153;28;20072;-69
2023/11/24 05:46:40;;;;;;;10.53;6.43;;;4.90;97.10;;;;;;5092513;28;20063;-69
2023/11/24 05:49:06;;;;;;;15.37;7.03;;;4.90;97.10;;;;;;5092629;28;20047;-69
2023/11/24 05:51:32;;;;;;;12.53;6.70;;;4.90;96.90;;;;;;5092603;28;20036;-69
2023/11/24 05:53:58;;;;;;;15.00;6.80;;;4.90;97.00;;;;;;5092570;28;20040;-69
2023/11/24 05:56:24;;;;;;;9.77;6.27;;;4.90;97.00;;;;;;5092665;28;20373;-69
2023/11/24 05:58:51;;;;;;;13.67;6.77;;;4.90;96.90;;;;;;5092424;28;20044;-69
2023/11/24 06:01:21;;;;;;;9.80;6.67;;;4.90;96.80;;;;;;5096500;28;20039;-69
2023/11/24 06:03:47;;;;;;;12.93;6.97;;;4.90;96.90;;;;;;5107689;28;20034;-69
2023/11/24 06:06:13;;;;;;;11.17;6.97;;;4.90;96.90;;;;;;5116609;28;20110;-69
2023/11/24 06:08:38;;;;;;;10.50;7.10;;;4.90;97.00;;;;;;5116489;28;20572;-70
2023/11/24 06:11:04;;;;;;;11.67;6.30;;;4.80;96.70;;;;;;5116693;28;20030;-69
2023/11/24 06:13:30;;;;;;;12.07;6.40;;;4.80;96.90;;;;;;5116553;28;20027;-69
2023/11/24 06:15:58;;;;;;;10.70;7.13;;;4.80;97.00;;;;;;5116834;28;20135;-69
2023/11/24 06:18:25;;;;;;;18.03;8.27;;;4.80;96.80;;;;;;5116023;28;20059;-69
2023/11/24 06:20:51;;;;;;;12.87;7.50;;;4.80;96.70;;;;;;5116411;28;20041;-69
2023/11/24 06:23:17;;;;;;;19.83;7.43;;;4.80;96.90;;;;;;5116514;28;20062;-69
2023/11/24 06:25:43;;;;;;;21.63;8.30;;;4.70;96.60;;;;;;5116421;28;20075;-69
2023/11/24 06:28:09;;;;;;;10.70;6.70;;;4.70;96.80;;;;;;5116342;28;20070;-69
2023/11/24 06:30:35;;;;;;;19.63;7.77;;;4.70;96.90;;;;;;5116347;28;20038;-69
2023/11/24 06:33:01;;;;;;;14.20;7.07;;;4.70;96.90;;;;;;5116404;28;20032;-69
2023/11/24 06:35:26;;;;;;;14.33;7.63;;;4.70;96.90;;;;;;5116137;28;20111;-69
2023/11/24 06:37:52;;;;;;;13.90;7.37;;;4.60;97.00;;;;;;5116224;28;20038;-69
2023/11/24 06:40:19;;;;;;;11.43;7.00;;;4.70;97.10;;;;;;5116150;28;20089;-69
2023/11/24 06:42:45;;;;;;;16.63;7.23;;;4.70;97.10;;;;;;5116182;28;20024;-69
2023/11/24 06:45:13;;;;;;;13.50;7.33;;;4.60;97.10;;;;;;5116275;28;20082;-69
2023/11/24 06:47:40;;;;;;;17.53;7.33;;;4.60;97.40;;;;;;5116212;28;20423;-70
2023/11/24 06:50:08;;;;;;;15.40;7.23;;;4.60;97.30;;;;;;5116056;28;20057;-70
2023/11/24 06:52:34;;;;;;;15.03;7.57;;;4.60;97.40;;;;;;5115998;28;20039;-69
2023/11/24 06:55:00;;;;;;;18.10;7.63;;;4.70;97.50;;;;;;5115771;28;20039;-69
2023/11/24 06:57:26;;;;;;;15.57;7.27;;;4.70;97.50;;;;;;5078527;28;20040;-69
2023/11/24 06:59:52;;;;;;;16.53;7.17;;;4.70;97.90;;;;;;5074475;28;20513;-69
2023/11/24 07:02:18;;;;;;;17.40;7.70;;;4.70;98.10;;;;;;5074999;28;20036;-69
2023/11/24 07:04:45;;;;;;;15.13;7.50;;;4.80;98.30;;;;;;5074978;28;20507;-69
2023/11/24 07:07:11;;;;;;;15.03;7.67;;;4.80;98.30;;;;;;5075246;28;20028;-70
2023/11/24 07:09:38;;;;;;;17.40;7.67;;;4.80;98.10;;;;;;5089167;28;20446;-70
2023/11/24 07:12:04;;;;;;;16.20;7.73;;;4.80;97.90;;;;;;5100126;28;20036;-69
2023/11/24 07:14:29;;;;;;;12.53;7.67;;;4.80;98.00;;;;;;5103067;28;20388;-69
2023/11/24 07:16:55;;;;;;;15.53;8.07;;;4.80;98.10;;;;;;5103930;28;20105;-69
2023/11/24 07:19:22;;;;;;;14.97;8.03;;;4.90;98.20;;;;;;5100792;28;20040;-69
2023/11/24 07:21:48;;;;;;;21.30;8.43;;;4.90;97.90;;;;;;5107650;28;20035;-69
2023/11/24 07:24:14;;;;;;;19.07;8.00;;;4.90;98.00;;;;;;5106253;28;20093;-69
2023/11/24 07:26:39;;;;;;;18.57;8.00;;;4.90;98.30;;;;;;5115344;28;20060;-69
2023/11/24 07:29:05;;;;;;;18.67;8.47;;;5.00;98.50;;;;;;5114041;28;20032;-69
2023/11/24 07:31:31;;;;;;;12.13;7.93;;;5.00;98.40;;;;;;5114242;28;20031;-69
2023/11/24 07:33:57;;;;;;;17.93;8.57;;;5.00;98.30;;;;;;5114696;28;20055;-69
2023/11/24 07:36:22;;;;;;;16.57;8.90;;;5.10;98.20;;;;;;5115122;28;20027;-69
2023/11/24 07:38:49;;;;;;;15.10;8.33;;;5.10;98.10;;;;;;5114737;28;20044;-70
2023/11/24 07:41:15;;;;;;;16.10;8.20;;;5.10;98.20;;;;;;5114683;28;20129;-69
2023/11/24 07:43:42;;;;;;;20.53;8.70;;;5.10;98.30;;;;;;5114811;28;20047;-69
2023/11/24 07:46:10;;;;;;;19.30;8.63;;;5.20;98.20;;;;;;5115013;28;20374;-69
2023/11/24 07:48:40;;;;;;;20.17;8.70;;;5.20;98.20;;;;;;5115165;28;20038;-69
2023/11/24 07:51:06;;;;;;;20.07;8.53;;;5.20;98.20;;;;;;5115131;28;20488;-69
2023/11/24 07:53:32;;;;;;;16.73;9.23;;;5.20;98.30;;;;;;5114997;28;20056;-69
2023/11/24 07:55:59;;;;;;;18.47;8.30;;;5.30;98.50;;;;;;5114789;28;20035;-69
2023/11/24 07:58:25;;;;;;;19.20;8.73;;;5.30;98.60;;;;;;5114811;28;20028;-69
2023/11/24 08:00:50;;;;;;;16.90;8.97;;;5.40;98.70;;;;;;5114731;28;20034;-70
2023/11/24 08:03:17;;;;;;;20.40;9.33;;;5.40;98.70;;;;;;5114629;28;20479;-69
2023/11/24 08:05:43;;;;;;;22.17;9.57;;;5.40;99.00;;;;;;5114693;28;20031;-69
2023/11/24 08:08:09;;;;;;;20.67;9.23;;;5.50;99.20;;;;;;5114725;28;20028;-70
2023/11/24 08:10:35;;;;;;;21.50;9.63;;;5.50;99.30;;;;;;5114742;28;20480;-70
2023/11/24 08:13:02;;;;;;;21.47;9.47;;;5.60;99.40;;;;;;5114098;28;20157;-69
2023/11/24 08:15:28;;;;;;;20.83;9.20;;;5.70;99.30;;;;;;5114098;28;20031;-69
2023/11/24 08:17:53;;;;;;;17.03;8.73;;;5.70;99.30;;;;;;5114119;28;20492;-69
2023/11/24 08:20:20;;;;;;;13.57;9.03;;;5.80;99.50;;;;;;5113809;28;20044;-69
2023/11/24 08:22:47;;;;;;;23.07;8.83;;;5.80;99.60;;;;;;5113956;28;20032;-69
2023/11/24 08:25:13;;;;;;;23.43;9.03;;;5.80;99.60;;;;;;5113014;28;20047;-69
2023/11/24 08:27:39;;;;;;;18.90;9.63;;;5.90;99.60;;;;;;5114131;28;20027;-69
2023/11/24 08:30:10;;;;;;;24.93;9.70;;;5.90;99.50;;;;;;5114003;28;20028;-70
2023/11/24 08:32:40;;;;;;;17.40;9.30;;;5.90;99.60;;;;;;5114390;28;20032;-69
2023/11/24 08:35:06;;;;;;;39.80;10.67;;;6.00;99.60;;;;;;5114114;28;20543;-70
2023/11/24 08:37:34;;;;;;;20.30;10.43;;;6.00;99.60;;;;;;5112040;28;20040;-70
2023/11/24 08:40:04;;;;;;;22.90;10.57;;;6.10;99.60;;;;;;5111073;28;20473;-69
2023/11/24 08:42:33;;;;;;;16.13;10.47;;;6.10;99.50;;;;;;5111936;28;20384;-70
2023/11/24 08:44:59;;;;;;;16.60;9.67;;;6.10;99.40;;;;;;5113919;28;20032;-69
2023/11/24 08:47:25;;;;;;;15.37;10.10;;;6.20;99.50;;;;;;5113847;28;20235;-70
2023/11/24 08:49:51;;;;;;;24.40;10.97;;;6.20;99.60;;;;;;5113826;28;20039;-69
2023/11/24 08:52:19;;;;;;;22.43;11.10;;;6.30;99.60;;;;;;5113628;28;20043;-69
2023/11/24 08:54:45;;;;;;;18.57;10.83;;;6.30;99.60;;;;;;5095571;28;20387;-70
2023/11/24 08:57:11;;;;;;;17.90;10.43;;;6.40;99.70;;;;;;5113776;28;20043;-69
2023/11/24 08:59:37;;;;;;;14.77;9.17;;;6.40;99.60;;;;;;5113475;28;20376;-70
2023/11/24 09:02:04;;;;;;;17.23;9.17;;;6.50;99.40;;;;;;5113478;28;20111;-70
2023/11/24 09:04:32;;;;;;;25.57;9.30;;;6.60;99.40;;;;;;5113792;28;20434;-70
2023/11/24 09:06:58;;;;;;;18.40;9.07;;;6.60;99.40;;;;;;5113525;28;20023;-70
2023/11/24 09:09:23;;;;;;;15.00;9.07;;;6.70;99.10;;;;;;5113560;28;20479;-69
2023/11/24 09:11:49;;;;;;;16.10;8.93;;;6.80;98.90;;;;;;5113483;28;20042;-69
2023/11/24 09:14:16;;;;;;;17.13;8.73;;;6.90;98.80;;;;;;5113556;28;20036;-69
2023/11/24 09:16:41;;;;;;;18.70;8.80;;;6.90;98.90;;;;;;5113441;28;20361;-69
2023/11/24 09:19:08;;;;;;;15.43;9.13;;;6.90;98.80;;;;;;5113357;28;20053;-70
2023/11/24 09:21:34;;;;;;;20.53;9.50;;;7.00;98.70;;;;;;5113824;28;20054;-69
2023/11/24 09:24:01;;;;;;;18.00;9.57;;;7.00;98.60;;;;;;5112836;28;20071;-70
2023/11/24 09:26:28;;;;;;;16.63;9.23;;;7.10;98.80;;;;;;5113162;28;20040;-69
2023/11/24 09:28:54;;;;;;;16.40;8.90;;;7.10;98.70;;;;;;5112014;28;20023;-70
2023/11/24 09:31:19;;;;;;;21.10;8.50;;;7.10;98.70;;;;;;5113071;28;20544;-70
2023/11/24 09:33:45;;;;;;;18.63;8.53;;;7.20;98.90;;;;;;5113012;28;20111;-72
2023/11/24 09:36:14;;;;;;;16.07;9.77;;;7.30;98.80;;;;;;5112993;28;20036;-70
2023/11/24 09:38:40;;;;;;;12.87;8.63;;;7.40;98.60;;;;;;5094344;28;20044;-69
2023/11/24 09:41:11;;;;;;;13.10;8.30;;;7.40;98.50;;;;;;5112896;28;20062;-69
2023/11/24 09:43:38;;;;;;;19.00;8.70;;;7.50;98.40;;;;;;5113011;28;20072;-69
2023/11/24 09:46:08;;;;;;;13.40;8.87;;;7.60;98.70;;;;;;5112892;28;20040;-69
2023/11/24 09:48:34;;;;;;;18.40;9.13;;;7.60;98.40;;;;;;5112929;28;20067;-69
2023/11/24 09:51:09;;;;;;;13.33;9.37;;;7.70;98.30;;;;;;5100232;28;20233;-69
2023/11/24 09:53:34;;;;;;;16.20;8.80;;;7.70;98.20;;;;;;5071909;28;20056;-69
2023/11/24 09:56:02;;;;;;;14.37;8.63;;;7.70;98.20;;;;;;5072220;28;20071;-69
2023/11/24 09:58:31;;;;;;;14.63;8.63;;;7.80;98.40;;;;;;5072308;28;20393;-69
2023/11/24 10:01:25;;;;;;;17.70;9.53;;;7.90;98.30;;;;;;5072567;28;20033;-69
2023/11/24 10:03:53;;;;;;;15.53;10.10;;;7.90;98.50;;;;;;5071993;28;20033;-69
2023/11/24 10:06:19;;;;;;;19.13;9.67;;;8.00;98.90;;;;;;5072377;28;20043;-70
2023/11/24 10:08:46;;;;;;;17.40;9.37;;;8.00;98.70;;;;;;5072351;28;20548;-69
2023/11/24 10:11:17;;;;;;;25.23;9.67;;;8.00;98.60;;;;;;5072306;28;20032;-69
2023/11/24 10:13:45;;;;;;;16.70;9.23;;;8.10;98.40;;;;;;5078790;23;20559;-69
2023/11/24 10:16:11;;;;;;;13.37;9.47;;;8.10;98.40;;;;;;5070888;28;20048;-69
2023/11/24 10:18:38;;;;;;;17.67;10.67;;;8.10;98.70;;;;;;5071491;28;20037;-69
2023/11/24 10:21:09;;;;;;;17.17;10.07;;;8.20;98.80;;;;;;5072033;28;20037;-69
2023/11/24 10:23:35;;;;;;;15.50;9.93;;;8.20;98.90;;;;;;5092070;28;20075;-69
2023/11/24 10:26:01;;;;;;;16.70;10.03;;;8.30;98.90;;;;;;5092282;28;20036;-69
2023/11/24 10:28:27;;;;;;;22.20;10.43;;;8.40;98.80;;;;;;5092245;28;20492;-69
2023/11/24 10:30:55;;;;;;;18.20;10.47;;;8.40;99.00;;;;;;5092197;28;20025;-70
2023/11/24 10:33:22;;;;;;;21.43;10.40;;;8.40;98.80;;;;;;5092532;28;20111;-69
2023/11/24 10:35:49;;;;;;;20.70;10.13;;;8.50;98.50;;;;;;5091822;28;20477;-69
2023/11/24 10:38:21;;;;;;;17.70;8.67;;;8.50;98.50;;;;;;5092157;28;20046;-69
2023/11/24 10:40:51;;;;;;;19.17;8.75;;;8.60;98.30;;;;;;5092230;28;20399;-69
2023/11/24 10:43:20;;;;;;;17.10;8.50;;;8.60;98.10;;;;;;5092425;28;20364;-70
2023/11/24 10:45:52;;;;;;;16.17;9.10;;;8.70;98.10;;;;;;5092112;28;20058;-70
2023/11/24 10:48:21;;;;;;;16.42;8.57;;;8.80;97.90;;;;;;5092976;28;20498;-70
2023/11/24 10:51:06;;;;;;;22.03;9.03;;;8.80;97.70;;;;;;5095959;28;20106;-70
2023/11/24 10:53:42;;;;;;;17.63;8.53;;;8.80;97.50;;;;;;5095802;28;20040;-70
2023/11/24 10:56:09;;;;;;;20.47;9.27;;;8.90;97.50;;;;;;5095776;28;20035;-71
2023/11/24 10:58:36;;;;;;;13.40;8.80;;;8.90;97.80;;;;;;5095796;28;20036;-70
2023/11/24 11:01:06;;;;;;;16.07;7.87;;;8.90;97.70;;;;;;5095688;28;20028;-70
2023/11/24 11:03:34;;;;;;;19.13;9.57;;;8.90;98.20;;;;;;5095858;28;20502;-70
2023/11/24 11:06:15;;;;;;;20.80;10.63;;;9.00;98.20;;;;;;5095718;28;20115;-70
2023/11/24 11:08:57;;;;;;;18.33;9.50;;;9.00;98.10;;;;;;5095349;28;20442;-70
2023/11/24 11:11:45;;;;;;;16.67;10.50;;;9.00;98.30;;;;;;5095508;28;20543;-70
2023/11/24 11:14:13;;;;;;;19.73;10.37;;;9.20;98.30;;;;;;5095116;28;20052;-70
2023/11/24 11:16:39;;;;;;;17.20;10.50;;;9.20;98.10;;;;;;5094942;28;20032;-70
2023/11/24 11:19:33;;;;;;;19.93;10.53;;;9.30;97.90;;;;;;5095566;28;20056;-72
2023/11/24 11:22:07;;;;;;;27.37;11.33;;;9.30;97.80;;;;;;5115437;28;20035;-70
2023/11/24 11:24:34;;;;;;;25.40;12.70;;;9.40;97.60;;;;;;5115422;28;20028;-71
2023/11/24 11:26:59;;;;;;;28.93;13.47;;;9.40;97.70;;;;;;5115438;28;20034;-71
2023/11/24 11:29:28;;;;;;;23.87;11.83;;;9.30;98.10;;;;;;5094321;28;20044;-70
2023/11/24 11:31:58;;;;;;;21.53;12.50;;;9.40;98.40;;;;;;5074702;28;20064;-70
2023/11/24 11:34:29;;;;;;;25.07;14.10;;;9.30;98.60;;;;;;5074783;28;20024;-70
2023/11/24 11:37:05;;;;;;;20.10;13.87;;;9.40;99.20;;;;;;5074710;28;20123;-71
2023/11/24 11:39:36;;;;;;;19.50;13.37;;;9.40;99.20;;;;;;5074544;28;20048;-70
2023/11/24 11:42:02;;;;;;;22.77;14.27;;;9.40;99.30;;;;;;5074319;28;20035;-70
2023/11/24 11:44:36;;;;;;;21.63;14.37;;;9.40;99.90;;;;;;5074826;28;20032;-70
2023/11/24 11:47:12;;;;;;;24.40;14.50;;;9.50;99.90;;;;;;5074593;28;20076;-70
2023/11/24 11:49:42;;;;;;;23.93;14.40;;;9.50;99.90;;;;;;5074104;28;20039;-70
2023/11/24 11:52:11;;;;;;;18.03;13.17;;;9.50;99.90;;;;;;5074071;28;20028;-70
2023/11/24 11:54:38;;;;;;;26.53;15.30;;;9.50;99.90;;;;;;5074366;28;20041;-70
2023/11/24 11:57:05;;;;;;;19.40;14.07;;;9.50;99.90;;;;;;5074212;28;20120;-71
2023/11/24 11:59:30;;;;;;;30.90;17.77;;;9.40;99.90;;;;;;5073975;28;20104;-71
2023/11/24 12:01:57;;;;;;;31.60;16.60;;;9.40;99.90;;;;;;5072855;28;20071;-71
2023/11/24 12:04:28;;;;;;;39.17;16.87;;;9.40;99.90;;;;;;5073911;28;20119;-71
2023/11/24 12:06:54;;;;;;;36.30;16.23;;;9.40;99.90;;;;;;5073791;28;20029;-71
2023/11/24 12:09:21;;;;;;;27.37;15.30;;;9.40;99.90;;;;;;5073946;28;20037;-71
2023/11/24 12:11:46;;;;;;;26.17;16.17;;;9.40;99.90;;;;;;5073728;28;20111;-71
2023/11/24 12:14:15;;;;;;;26.43;18.30;;;9.40;99.90;;;;;;5070770;28;20131;-70
2023/11/24 12:16:41;;;;;;;27.60;16.20;;;9.40;99.90;;;;;;5070883;28;20036;-70
2023/11/24 12:19:08;;;;;;;28.50;16.20;;;9.40;99.90;;;;;;5072545;28;20037;-71
2023/11/24 12:21:42;;;;;;;26.23;15.67;;;9.50;99.90;;;;;;5073661;28;20029;-70
2023/11/24 12:24:09;;;;;;;24.90;16.33;;;9.50;99.90;;;;;;5073173;28;20500;-70
2023/11/24 12:26:38;;;;;;;23.30;16.30;;;9.50;99.90;;;;;;5073389;28;20032;-71
2023/11/24 12:29:11;;;;;;;24.57;16.90;;;9.50;99.90;;;;;;5073406;28;20032;-73
2023/11/24 12:31:38;;;;;;;61.40;33.00;;;9.60;99.90;;;;;;5073446;28;20549;-70
2023/11/24 12:34:20;;;;;;;56.13;30.93;;;9.70;99.90;;;;;;5073129;28;20043;-71
2023/11/24 12:36:46;;;;;;;33.07;18.00;;;9.80;99.90;;;;;;5072992;28;20151;-70
2023/11/24 12:39:13;;;;;;;29.37;17.37;;;9.90;99.90;;;;;;5070668;28;20051;-70
2023/11/24 12:41:43;;;;;;;31.63;17.97;;;9.90;99.90;;;;;;5070673;28;20484;-70